sensor_id;sensor_type;location;lat;lon;timestamp;temperature;humidity
3842;DHT22;1936;47.074;15.336;2022-11-21T00:01:45;0.50;99.90
3842;DHT22;1936;47.074;15.336;2022-11-21T00:03:48;0.40;99.90
3842;DHT22;1936;47.074;15.336;2022-11-21T00:05:52;0.40;99.90
3842;DHT22;1936;47.074;15.336;2022-11-21T00:07:56;0.30;99.90
3842;DHT22;1936;47.074;15.336;2022-11-21T00:10:00;0.30;99.90
3842;DHT22;1936;47.074;15.336;2022-11-21T00:12:05;0.30;99.90
3842;DHT22;1936;47.074;15.336;2022-11-21T00:14:08;0.20;99.90
3842;DHT22;1936;47.074;15.336;2022-11-21T00:16:13;0.20;99.90
3842;DHT22;1936;47.074;15.336;2022-11-21T00:18:16;0.20;99.90
3842;DHT22;1936;47.074;15.336;2022-11-21T00:20:20;0.20;99.90
3842;DHT22;1936;47.074;15.336;2022-11-21T00:22:24;0.20;99.90
3842;DHT22;1936;47.074;15.336;2022-11-21T00:24:27;0.10;99.90
3842;DHT22;1936;47.074;15.336;2022-11-21T00:26:30;0.10;99.90
3842;DHT22;1936;47.074;15.336;2022-11-21T00:28:35;0.10;99.90
3842;DHT22;1936;47.074;15.336;2022-11-21T00:30:39;0.10;99.90
3842;DHT22;1936;47.074;15.336;2022-11-21T00:32:42;0.10;99.90
3842;DHT22;1936;47.074;15.336;2022-11-21T00:34:45;0.00;99.90
3842;DHT22;1936;47.074;15.336;2022-11-21T00:36:48;0.00;99.90
3842;DHT22;1936;47.074;15.336;2022-11-21T00:38:51;0.00;99.90
3842;DHT22;1936;47.074;15.336;2022-11-21T00:40:55;-0.10;99.90
3842;DHT22;1936;47.074;15.336;2022-11-21T00:42:58;0.00;99.90
3842;DHT22;1936;47.074;15.336;2022-11-21T00:45:03;0.00;99.90
3842;DHT22;1936;47.074;15.336;2022-11-21T00:47:07;0.00;99.90
3842;DHT22;1936;47.074;15.336;2022-11-21T00:49:10;0.00;99.90
3842;DHT22;1936;47.074;15.336;2022-11-21T00:51:13;0.00;99.90
3842;DHT22;1936;47.074;15.336;2022-11-21T00:53:17;0.00;99.90
3842;DHT22;1936;47.074;15.336;2022-11-21T00:55:20;0.00;99.90
3842;DHT22;1936;47.074;15.336;2022-11-21T00:57:23;0.00;99.90
3842;DHT22;1936;47.074;15.336;2022-11-21T00:59:27;0.00;99.90
3842;DHT22;1936;47.074;15.336;2022-11-21T01:01:31;0.00;99.90
3842;DHT22;1936;47.074;15.336;2022-11-21T01:03:35;0.10;99.90
3842;DHT22;1936;47.074;15.336;2022-11-21T01:05:39;0.10;99.90
3842;DHT22;1936;47.074;15.336;2022-11-21T01:07:42;0.10;99.90
3842;DHT22;1936;47.074;15.336;2022-11-21T01:09:45;0.20;99.90
3842;DHT22;1936;47.074;15.336;2022-11-21T01:11:49;0.20;99.90
3842;DHT22;1936;47.074;15.336;2022-11-21T01:13:52;0.20;99.90
3842;DHT22;1936;47.074;15.336;2022-11-21T01:16:02;0.30;99.90
3842;DHT22;1936;47.074;15.336;2022-11-21T01:18:07;0.40;99.90
3842;DHT22;1936;47.074;15.336;2022-11-21T01:20:11;0.50;99.90
3842;DHT22;1936;47.074;15.336;2022-11-21T01:22:14;0.50;99.90
3842;DHT22;1936;47.074;15.336;2022-11-21T01:24:17;0.50;99.90
3842;DHT22;1936;47.074;15.336;2022-11-21T01:26:22;0.60;99.90
3842;DHT22;1936;47.074;15.336;2022-11-21T01:28:25;0.60;99.90
3842;DHT22;1936;47.074;15.336;2022-11-21T01:30:29;0.50;99.90
3842;DHT22;1936;47.074;15.336;2022-11-21T01:32:32;0.50;99.90
3842;DHT22;1936;47.074;15.336;2022-11-21T01:34:37;0.40;99.90
3842;DHT22;1936;47.074;15.336;2022-11-21T01:36:41;0.40;99.90
3842;DHT22;1936;47.074;15.336;2022-11-21T01:38:45;0.50;99.90
3842;DHT22;1936;47.074;15.336;2022-11-21T01:40:49;0.60;99.90
3842;DHT22;1936;47.074;15.336;2022-11-21T01:42:54;0.60;99.90
3842;DHT22;1936;47.074;15.336;2022-11-21T01:44:59;0.60;99.90
3842;DHT22;1936;47.074;15.336;2022-11-21T01:47:02;0.50;99.90
3842;DHT22;1936;47.074;15.336;2022-11-21T01:49:08;0.50;99.90
3842;DHT22;1936;47.074;15.336;2022-11-21T01:51:17;0.50;99.90
3842;DHT22;1936;47.074;15.336;2022-11-21T01:53:21;0.50;99.90
3842;DHT22;1936;47.074;15.336;2022-11-21T01:55:25;0.50;99.90
3842;DHT22;1936;47.074;15.336;2022-11-21T01:57:31;0.60;99.90
3842;DHT22;1936;47.074;15.336;2022-11-21T01:59:38;0.80;99.90
3842;DHT22;1936;47.074;15.336;2022-11-21T02:01:44;1.00;99.90
3842;DHT22;1936;47.074;15.336;2022-11-21T02:03:48;1.10;99.90
3842;DHT22;1936;47.074;15.336;2022-11-21T02:05:54;1.30;99.90
3842;DHT22;1936;47.074;15.336;2022-11-21T02:08:04;1.30;99.90
3842;DHT22;1936;47.074;15.336;2022-11-21T02:10:08;1.50;99.90
3842;DHT22;1936;47.074;15.336;2022-11-21T02:12:16;1.50;99.90
3842;DHT22;1936;47.074;15.336;2022-11-21T02:14:20;1.50;99.90
3842;DHT22;1936;47.074;15.336;2022-11-21T02:16:24;1.40;99.90
3842;DHT22;1936;47.074;15.336;2022-11-21T02:18:28;1.30;99.90
3842;DHT22;1936;47.074;15.336;2022-11-21T02:20:31;1.20;99.90
3842;DHT22;1936;47.074;15.336;2022-11-21T02:22:41;1.10;99.90
3842;DHT22;1936;47.074;15.336;2022-11-21T02:27:15;0.90;99.90
3842;DHT22;1936;47.074;15.336;2022-11-21T02:29:19;0.90;99.90
3842;DHT22;1936;47.074;15.336;2022-11-21T02:31:22;0.80;99.90
3842;DHT22;1936;47.074;15.336;2022-11-21T02:33:26;0.70;99.90
3842;DHT22;1936;47.074;15.336;2022-11-21T02:35:29;0.70;99.90
3842;DHT22;1936;47.074;15.336;2022-11-21T02:37:35;0.70;99.90
3842;DHT22;1936;47.074;15.336;2022-11-21T02:39:38;0.60;99.90
3842;DHT22;1936;47.074;15.336;2022-11-21T02:41:48;0.60;99.90
3842;DHT22;1936;47.074;15.336;2022-11-21T02:43:58;0.60;99.90
3842;DHT22;1936;47.074;15.336;2022-11-21T02:46:01;0.60;99.90
3842;DHT22;1936;47.074;15.336;2022-11-21T02:48:05;0.60;99.90
3842;DHT22;1936;47.074;15.336;2022-11-21T02:50:12;0.60;99.90
3842;DHT22;1936;47.074;15.336;2022-11-21T02:52:15;0.60;99.90
3842;DHT22;1936;47.074;15.336;2022-11-21T02:54:19;0.50;99.90
3842;DHT22;1936;47.074;15.336;2022-11-21T02:56:22;0.40;99.90
3842;DHT22;1936;47.074;15.336;2022-11-21T02:58:26;0.50;99.90
3842;DHT22;1936;47.074;15.336;2022-11-21T03:00:31;0.40;99.90
3842;DHT22;1936;47.074;15.336;2022-11-21T03:02:35;0.50;99.90
3842;DHT22;1936;47.074;15.336;2022-11-21T03:04:39;0.40;99.90
3842;DHT22;1936;47.074;15.336;2022-11-21T03:06:42;0.40;99.90
3842;DHT22;1936;47.074;15.336;2022-11-21T03:08:46;0.30;99.90
3842;DHT22;1936;47.074;15.336;2022-11-21T03:10:49;0.30;99.90
3842;DHT22;1936;47.074;15.336;2022-11-21T03:12:52;0.30;99.90
3842;DHT22;1936;47.074;15.336;2022-11-21T03:15:03;0.30;99.90
3842;DHT22;1936;47.074;15.336;2022-11-21T03:17:08;0.40;99.90
3842;DHT22;1936;47.074;15.336;2022-11-21T03:19:11;0.30;99.90
3842;DHT22;1936;47.074;15.336;2022-11-21T03:21:14;0.30;99.90
3842;DHT22;1936;47.074;15.336;2022-11-21T03:23:17;0.30;99.90
3842;DHT22;1936;47.074;15.336;2022-11-21T03:25:21;0.30;99.90
3842;DHT22;1936;47.074;15.336;2022-11-21T03:27:24;0.30;99.90
3842;DHT22;1936;47.074;15.336;2022-11-21T03:29:27;0.40;99.90
3842;DHT22;1936;47.074;15.336;2022-11-21T03:31:31;0.30;99.90
3842;DHT22;1936;47.074;15.336;2022-11-21T03:33:36;0.30;99.90
3842;DHT22;1936;47.074;15.336;2022-11-21T03:35:39;0.20;99.90
3842;DHT22;1936;47.074;15.336;2022-11-21T03:37:42;0.20;99.90
3842;DHT22;1936;47.074;15.336;2022-11-21T03:39:46;0.20;99.90
3842;DHT22;1936;47.074;15.336;2022-11-21T03:41:49;0.10;99.90
3842;DHT22;1936;47.074;15.336;2022-11-21T03:43:53;0.10;99.90
3842;DHT22;1936;47.074;15.336;2022-11-21T03:45:56;0.20;99.90
3842;DHT22;1936;47.074;15.336;2022-11-21T03:48:00;0.20;99.90
3842;DHT22;1936;47.074;15.336;2022-11-21T03:50:05;0.20;99.90
3842;DHT22;1936;47.074;15.336;2022-11-21T03:52:09;0.20;99.90
3842;DHT22;1936;47.074;15.336;2022-11-21T03:54:12;0.20;99.90
3842;DHT22;1936;47.074;15.336;2022-11-21T03:56:16;0.30;99.90
3842;DHT22;1936;47.074;15.336;2022-11-21T03:58:19;0.30;99.90
3842;DHT22;1936;47.074;15.336;2022-11-21T04:00:22;0.30;99.90
3842;DHT22;1936;47.074;15.336;2022-11-21T04:02:26;0.40;99.90
3842;DHT22;1936;47.074;15.336;2022-11-21T04:04:31;0.30;99.90
3842;DHT22;1936;47.074;15.336;2022-11-21T04:06:36;0.30;99.90
3842;DHT22;1936;47.074;15.336;2022-11-21T04:08:40;0.30;99.90
3842;DHT22;1936;47.074;15.336;2022-11-21T04:10:45;0.30;99.90
3842;DHT22;1936;47.074;15.336;2022-11-21T04:12:49;0.30;99.90
3842;DHT22;1936;47.074;15.336;2022-11-21T04:14:52;0.30;99.90
3842;DHT22;1936;47.074;15.336;2022-11-21T04:16:55;0.20;99.90
3842;DHT22;1936;47.074;15.336;2022-11-21T04:18:59;0.30;99.90
3842;DHT22;1936;47.074;15.336;2022-11-21T04:21:03;0.30;99.90
3842;DHT22;1936;47.074;15.336;2022-11-21T04:23:09;0.30;99.90
3842;DHT22;1936;47.074;15.336;2022-11-21T04:25:12;0.40;99.90
3842;DHT22;1936;47.074;15.336;2022-11-21T04:27:16;0.50;99.90
3842;DHT22;1936;47.074;15.336;2022-11-21T04:29:19;0.60;99.90
3842;DHT22;1936;47.074;15.336;2022-11-21T04:31:22;0.60;99.90
3842;DHT22;1936;47.074;15.336;2022-11-21T04:33:25;0.60;99.90
3842;DHT22;1936;47.074;15.336;2022-11-21T04:35:29;0.60;99.90
3842;DHT22;1936;47.074;15.336;2022-11-21T04:37:32;0.70;99.90
3842;DHT22;1936;47.074;15.336;2022-11-21T04:39:37;0.70;99.90
3842;DHT22;1936;47.074;15.336;2022-11-21T04:41:40;0.70;99.90
3842;DHT22;1936;47.074;15.336;2022-11-21T04:43:44;0.70;99.90
3842;DHT22;1936;47.074;15.336;2022-11-21T04:45:47;0.70;99.90
3842;DHT22;1936;47.074;15.336;2022-11-21T04:47:50;0.70;99.90
3842;DHT22;1936;47.074;15.336;2022-11-21T04:49:54;0.70;99.90
3842;DHT22;1936;47.074;15.336;2022-11-21T04:51:57;0.70;99.90
3842;DHT22;1936;47.074;15.336;2022-11-21T04:54:00;0.70;99.90
3842;DHT22;1936;47.074;15.336;2022-11-21T04:56:06;0.70;99.90
3842;DHT22;1936;47.074;15.336;2022-11-21T04:58:09;0.70;99.90
3842;DHT22;1936;47.074;15.336;2022-11-21T05:00:13;0.70;99.90
3842;DHT22;1936;47.074;15.336;2022-11-21T05:02:25;0.70;99.90
3842;DHT22;1936;47.074;15.336;2022-11-21T05:04:28;0.70;99.90
3842;DHT22;1936;47.074;15.336;2022-11-21T05:06:32;0.70;99.90
3842;DHT22;1936;47.074;15.336;2022-11-21T05:08:35;0.70;99.90
3842;DHT22;1936;47.074;15.336;2022-11-21T05:10:38;0.80;99.90
3842;DHT22;1936;47.074;15.336;2022-11-21T05:12:58;0.70;99.90
3842;DHT22;1936;47.074;15.336;2022-11-21T05:15:19;0.70;99.90
3842;DHT22;1936;47.074;15.336;2022-11-21T05:17:27;0.70;99.90
3842;DHT22;1936;47.074;15.336;2022-11-21T05:19:30;0.70;99.90
3842;DHT22;1936;47.074;15.336;2022-11-21T05:21:34;0.80;99.90
3842;DHT22;1936;47.074;15.336;2022-11-21T05:23:37;0.70;99.90
3842;DHT22;1936;47.074;15.336;2022-11-21T05:25:40;0.70;99.90
3842;DHT22;1936;47.074;15.336;2022-11-21T05:27:43;0.70;99.90
3842;DHT22;1936;47.074;15.336;2022-11-21T05:29:48;0.70;99.90
3842;DHT22;1936;47.074;15.336;2022-11-21T05:31:51;0.70;99.90
3842;DHT22;1936;47.074;15.336;2022-11-21T05:33:55;0.60;99.90
3842;DHT22;1936;47.074;15.336;2022-11-21T05:35:58;0.60;99.90
3842;DHT22;1936;47.074;15.336;2022-11-21T05:38:02;0.60;99.90
3842;DHT22;1936;47.074;15.336;2022-11-21T05:40:06;0.60;99.90
3842;DHT22;1936;47.074;15.336;2022-11-21T05:42:10;0.70;99.90
3842;DHT22;1936;47.074;15.336;2022-11-21T05:44:13;0.70;99.90
3842;DHT22;1936;47.074;15.336;2022-11-21T05:46:18;0.60;99.90
3842;DHT22;1936;47.074;15.336;2022-11-21T05:48:22;0.60;99.90
3842;DHT22;1936;47.074;15.336;2022-11-21T05:50:25;0.60;99.90
3842;DHT22;1936;47.074;15.336;2022-11-21T05:52:29;0.60;99.90
3842;DHT22;1936;47.074;15.336;2022-11-21T05:54:32;0.60;99.90
3842;DHT22;1936;47.074;15.336;2022-11-21T05:56:35;0.70;99.90
3842;DHT22;1936;47.074;15.336;2022-11-21T05:58:39;0.70;99.90
3842;DHT22;1936;47.074;15.336;2022-11-21T06:00:42;0.70;99.90
3842;DHT22;1936;47.074;15.336;2022-11-21T06:02:47;0.70;99.90
3842;DHT22;1936;47.074;15.336;2022-11-21T06:05:08;0.70;99.90
3842;DHT22;1936;47.074;15.336;2022-11-21T06:07:11;0.70;99.90
3842;DHT22;1936;47.074;15.336;2022-11-21T06:09:15;0.70;99.90
3842;DHT22;1936;47.074;15.336;2022-11-21T06:11:18;0.70;99.90
3842;DHT22;1936;47.074;15.336;2022-11-21T06:13:22;0.80;99.90
3842;DHT22;1936;47.074;15.336;2022-11-21T06:15:25;0.90;99.90
3842;DHT22;1936;47.074;15.336;2022-11-21T06:17:29;0.70;99.90
3842;DHT22;1936;47.074;15.336;2022-11-21T06:19:34;0.70;99.90
3842;DHT22;1936;47.074;15.336;2022-11-21T06:21:37;0.70;99.90
3842;DHT22;1936;47.074;15.336;2022-11-21T06:23:42;0.70;99.90
3842;DHT22;1936;47.074;15.336;2022-11-21T06:25:45;0.70;99.90
3842;DHT22;1936;47.074;15.336;2022-11-21T06:27:49;0.80;99.90
3842;DHT22;1936;47.074;15.336;2022-11-21T06:29:52;0.80;99.90
3842;DHT22;1936;47.074;15.336;2022-11-21T06:31:56;0.80;99.90
3842;DHT22;1936;47.074;15.336;2022-11-21T06:33:59;0.90;99.90
3842;DHT22;1936;47.074;15.336;2022-11-21T06:36:06;0.90;99.90
3842;DHT22;1936;47.074;15.336;2022-11-21T06:38:10;0.90;99.90
3842;DHT22;1936;47.074;15.336;2022-11-21T06:40:14;0.90;99.90
3842;DHT22;1936;47.074;15.336;2022-11-21T06:42:18;0.80;99.90
3842;DHT22;1936;47.074;15.336;2022-11-21T06:44:22;0.90;99.90
3842;DHT22;1936;47.074;15.336;2022-11-21T06:46:25;0.90;99.90
3842;DHT22;1936;47.074;15.336;2022-11-21T06:48:29;1.00;99.90
3842;DHT22;1936;47.074;15.336;2022-11-21T06:50:33;0.90;99.90
3842;DHT22;1936;47.074;15.336;2022-11-21T06:52:38;1.00;99.90
3842;DHT22;1936;47.074;15.336;2022-11-21T06:54:41;1.10;99.90
3842;DHT22;1936;47.074;15.336;2022-11-21T06:56:45;1.10;99.90
3842;DHT22;1936;47.074;15.336;2022-11-21T06:58:49;1.20;99.90
3842;DHT22;1936;47.074;15.336;2022-11-21T07:00:53;1.30;99.90
3842;DHT22;1936;47.074;15.336;2022-11-21T07:02:59;1.40;99.90
3842;DHT22;1936;47.074;15.336;2022-11-21T07:05:05;1.50;99.90
3842;DHT22;1936;47.074;15.336;2022-11-21T07:07:08;1.50;99.90
3842;DHT22;1936;47.074;15.336;2022-11-21T07:09:13;1.50;99.90
3842;DHT22;1936;47.074;15.336;2022-11-21T07:11:35;1.60;99.90
3842;DHT22;1936;47.074;15.336;2022-11-21T07:13:38;1.50;99.90
3842;DHT22;1936;47.074;15.336;2022-11-21T07:15:41;1.60;99.90
3842;DHT22;1936;47.074;15.336;2022-11-21T07:17:44;1.50;99.90
3842;DHT22;1936;47.074;15.336;2022-11-21T07:19:48;1.50;99.90
3842;DHT22;1936;47.074;15.336;2022-11-21T07:21:51;1.60;99.90
3842;DHT22;1936;47.074;15.336;2022-11-21T07:23:55;1.50;99.90
3842;DHT22;1936;47.074;15.336;2022-11-21T07:26:00;1.50;99.90
3842;DHT22;1936;47.074;15.336;2022-11-21T07:28:05;1.60;99.90
3842;DHT22;1936;47.074;15.336;2022-11-21T07:30:10;1.70;99.90
3842;DHT22;1936;47.074;15.336;2022-11-21T07:32:14;1.70;99.90
3842;DHT22;1936;47.074;15.336;2022-11-21T07:34:17;1.60;99.90
3842;DHT22;1936;47.074;15.336;2022-11-21T07:36:21;1.60;99.90
3842;DHT22;1936;47.074;15.336;2022-11-21T07:38:25;1.70;99.90
3842;DHT22;1936;47.074;15.336;2022-11-21T07:40:29;1.70;99.90
3842;DHT22;1936;47.074;15.336;2022-11-21T07:42:36;1.70;99.90
3842;DHT22;1936;47.074;15.336;2022-11-21T07:44:40;1.80;99.90
3842;DHT22;1936;47.074;15.336;2022-11-21T07:46:43;1.90;99.90
3842;DHT22;1936;47.074;15.336;2022-11-21T07:48:47;2.00;99.90
3842;DHT22;1936;47.074;15.336;2022-11-21T07:50:50;2.20;99.90
3842;DHT22;1936;47.074;15.336;2022-11-21T07:52:56;2.30;99.90
3842;DHT22;1936;47.074;15.336;2022-11-21T07:55:00;2.30;99.90
3842;DHT22;1936;47.074;15.336;2022-11-21T07:57:04;2.30;99.90
3842;DHT22;1936;47.074;15.336;2022-11-21T07:59:09;2.60;99.90
3842;DHT22;1936;47.074;15.336;2022-11-21T08:01:13;2.60;99.90
3842;DHT22;1936;47.074;15.336;2022-11-21T08:03:17;2.50;99.90
3842;DHT22;1936;47.074;15.336;2022-11-21T08:05:21;2.70;99.90
3842;DHT22;1936;47.074;15.336;2022-11-21T08:07:25;2.80;99.90
3842;DHT22;1936;47.074;15.336;2022-11-21T08:09:29;3.00;99.90
3842;DHT22;1936;47.074;15.336;2022-11-21T08:11:40;3.10;99.90
3842;DHT22;1936;47.074;15.336;2022-11-21T08:13:44;3.20;99.90
3842;DHT22;1936;47.074;15.336;2022-11-21T08:15:49;3.20;99.90
3842;DHT22;1936;47.074;15.336;2022-11-21T08:17:53;3.30;99.90
3842;DHT22;1936;47.074;15.336;2022-11-21T08:19:56;3.40;99.90
3842;DHT22;1936;47.074;15.336;2022-11-21T08:22:01;3.60;99.90
3842;DHT22;1936;47.074;15.336;2022-11-21T08:24:08;3.70;99.90
3842;DHT22;1936;47.074;15.336;2022-11-21T08:26:15;3.70;99.90
3842;DHT22;1936;47.074;15.336;2022-11-21T08:28:19;4.00;99.90
3842;DHT22;1936;47.074;15.336;2022-11-21T08:30:24;4.30;99.90
3842;DHT22;1936;47.074;15.336;2022-11-21T08:32:30;4.60;99.90
3842;DHT22;1936;47.074;15.336;2022-11-21T08:34:34;4.80;99.90
3842;DHT22;1936;47.074;15.336;2022-11-21T08:36:38;5.00;99.90
3842;DHT22;1936;47.074;15.336;2022-11-21T08:38:42;5.10;99.90
3842;DHT22;1936;47.074;15.336;2022-11-21T08:40:45;5.60;99.90
3842;DHT22;1936;47.074;15.336;2022-11-21T08:43:15;5.70;99.90
3842;DHT22;1936;47.074;15.336;2022-11-21T08:45:25;6.30;99.90
3842;DHT22;1936;47.074;15.336;2022-11-21T08:47:31;7.30;99.90
3842;DHT22;1936;47.074;15.336;2022-11-21T08:49:38;8.00;99.90
3842;DHT22;1936;47.074;15.336;2022-11-21T08:51:42;7.90;99.90
3842;DHT22;1936;47.074;15.336;2022-11-21T08:53:48;8.00;99.90
3842;DHT22;1936;47.074;15.336;2022-11-21T08:55:53;7.90;99.90
3842;DHT22;1936;47.074;15.336;2022-11-21T08:58:04;7.50;99.90
3842;DHT22;1936;47.074;15.336;2022-11-21T09:00:10;7.20;99.90
3842;DHT22;1936;47.074;15.336;2022-11-21T09:02:14;7.10;99.90
3842;DHT22;1936;47.074;15.336;2022-11-21T09:04:20;7.10;99.90
3842;DHT22;1936;47.074;15.336;2022-11-21T09:06:24;7.00;99.90
3842;DHT22;1936;47.074;15.336;2022-11-21T09:08:29;7.50;99.90
3842;DHT22;1936;47.074;15.336;2022-11-21T09:10:33;7.70;99.90
3842;DHT22;1936;47.074;15.336;2022-11-21T09:12:37;8.10;99.90
3842;DHT22;1936;47.074;15.336;2022-11-21T09:14:41;8.80;99.90
3842;DHT22;1936;47.074;15.336;2022-11-21T09:17:02;9.40;99.90
3842;DHT22;1936;47.074;15.336;2022-11-21T09:19:25;9.60;99.90
3842;DHT22;1936;47.074;15.336;2022-11-21T09:21:29;9.90;99.90
3842;DHT22;1936;47.074;15.336;2022-11-21T09:23:33;9.80;99.90
3842;DHT22;1936;47.074;15.336;2022-11-21T09:25:37;11.30;99.90
3842;DHT22;1936;47.074;15.336;2022-11-21T09:27:40;12.20;99.90
3842;DHT22;1936;47.074;15.336;2022-11-21T09:29:44;13.10;99.90
3842;DHT22;1936;47.074;15.336;2022-11-21T09:31:54;13.80;99.90
3842;DHT22;1936;47.074;15.336;2022-11-21T09:33:58;13.80;99.90
3842;DHT22;1936;47.074;15.336;2022-11-21T09:36:03;13.70;99.90
3842;DHT22;1936;47.074;15.336;2022-11-21T09:38:07;14.10;99.90
3842;DHT22;1936;47.074;15.336;2022-11-21T09:40:13;15.70;99.90
3842;DHT22;1936;47.074;15.336;2022-11-21T09:42:45;16.70;99.90
3842;DHT22;1936;47.074;15.336;2022-11-21T09:44:58;16.10;99.90
3842;DHT22;1936;47.074;15.336;2022-11-21T09:47:16;15.50;98.40
3842;DHT22;1936;47.074;15.336;2022-11-21T09:49:21;15.30;97.10
3842;DHT22;1936;47.074;15.336;2022-11-21T09:51:30;17.40;99.90
3842;DHT22;1936;47.074;15.336;2022-11-21T09:53:36;17.50;94.80
3842;DHT22;1936;47.074;15.336;2022-11-21T09:55:43;17.30;94.70
3842;DHT22;1936;47.074;15.336;2022-11-21T09:57:49;17.70;94.80
3842;DHT22;1936;47.074;15.336;2022-11-21T09:59:53;18.70;95.20
3842;DHT22;1936;47.074;15.336;2022-11-21T10:01:56;17.60;93.90
3842;DHT22;1936;47.074;15.336;2022-11-21T10:04:01;19.30;93.20
3842;DHT22;1936;47.074;15.336;2022-11-21T10:06:16;18.50;93.90
3842;DHT22;1936;47.074;15.336;2022-11-21T10:08:28;18.50;93.60
3842;DHT22;1936;47.074;15.336;2022-11-21T10:10:52;17.70;97.50
3842;DHT22;1936;47.074;15.336;2022-11-21T10:13:05;17.20;98.70
3842;DHT22;1936;47.074;15.336;2022-11-21T10:15:31;15.50;95.50
3842;DHT22;1936;47.074;15.336;2022-11-21T10:17:48;15.10;96.50
3842;DHT22;1936;47.074;15.336;2022-11-21T10:20:07;14.70;98.40
3842;DHT22;1936;47.074;15.336;2022-11-21T10:22:37;13.90;99.10
3842;DHT22;1936;47.074;15.336;2022-11-21T10:24:54;13.90;99.90
3842;DHT22;1936;47.074;15.336;2022-11-21T10:27:01;13.00;99.90
3842;DHT22;1936;47.074;15.336;2022-11-21T10:29:11;12.90;99.90
3842;DHT22;1936;47.074;15.336;2022-11-21T10:31:18;12.20;99.90
3842;DHT22;1936;47.074;15.336;2022-11-21T10:33:27;12.40;99.90
3842;DHT22;1936;47.074;15.336;2022-11-21T10:35:37;12.60;99.90
3842;DHT22;1936;47.074;15.336;2022-11-21T10:37:46;12.50;99.90
3842;DHT22;1936;47.074;15.336;2022-11-21T10:39:53;12.40;99.90
3842;DHT22;1936;47.074;15.336;2022-11-21T10:42:01;12.00;99.90
3842;DHT22;1936;47.074;15.336;2022-11-21T10:44:13;11.80;99.90
3842;DHT22;1936;47.074;15.336;2022-11-21T10:46:36;11.60;99.90
3842;DHT22;1936;47.074;15.336;2022-11-21T10:48:40;10.80;99.90
3842;DHT22;1936;47.074;15.336;2022-11-21T10:50:53;10.70;99.90
3842;DHT22;1936;47.074;15.336;2022-11-21T10:53:11;10.70;99.90
3842;DHT22;1936;47.074;15.336;2022-11-21T10:55:36;10.80;99.90
3842;DHT22;1936;47.074;15.336;2022-11-21T10:57:57;11.40;99.90
3842;DHT22;1936;47.074;15.336;2022-11-21T11:00:22;11.90;99.90
3842;DHT22;1936;47.074;15.336;2022-11-21T11:02:26;12.60;99.90
3842;DHT22;1936;47.074;15.336;2022-11-21T11:04:30;13.20;99.90
3842;DHT22;1936;47.074;15.336;2022-11-21T11:06:51;12.50;99.90
3842;DHT22;1936;47.074;15.336;2022-11-21T11:08:54;12.10;99.90
3842;DHT22;1936;47.074;15.336;2022-11-21T11:11:05;11.70;99.90
3842;DHT22;1936;47.074;15.336;2022-11-21T11:13:13;11.20;99.90
3842;DHT22;1936;47.074;15.336;2022-11-21T11:15:58;11.20;99.90
3842;DHT22;1936;47.074;15.336;2022-11-21T11:18:04;11.30;99.90
3842;DHT22;1936;47.074;15.336;2022-11-21T11:20:30;11.30;99.90
3842;DHT22;1936;47.074;15.336;2022-11-21T11:22:33;11.40;99.90
3842;DHT22;1936;47.074;15.336;2022-11-21T11:24:43;11.70;99.90
3842;DHT22;1936;47.074;15.336;2022-11-21T11:27:05;12.00;99.90
3842;DHT22;1936;47.074;15.336;2022-11-21T11:29:13;12.30;99.90
3842;DHT22;1936;47.074;15.336;2022-11-21T11:31:16;12.90;99.90
3842;DHT22;1936;47.074;15.336;2022-11-21T11:33:34;12.90;99.90
3842;DHT22;1936;47.074;15.336;2022-11-21T11:35:38;12.80;99.90
3842;DHT22;1936;47.074;15.336;2022-11-21T11:37:49;13.10;99.90
3842;DHT22;1936;47.074;15.336;2022-11-21T11:40:06;12.90;99.90
3842;DHT22;1936;47.074;15.336;2022-11-21T11:42:42;12.90;99.90
3842;DHT22;1936;47.074;15.336;2022-11-21T11:45:15;12.20;99.90
3842;DHT22;1936;47.074;15.336;2022-11-21T11:47:41;11.20;99.90
3842;DHT22;1936;47.074;15.336;2022-11-21T11:49:59;10.80;99.90
3842;DHT22;1936;47.074;15.336;2022-11-21T11:52:14;10.50;99.90
3842;DHT22;1936;47.074;15.336;2022-11-21T11:54:19;10.10;99.90
3842;DHT22;1936;47.074;15.336;2022-11-21T11:56:25;9.90;99.90
3842;DHT22;1936;47.074;15.336;2022-11-21T11:58:37;9.60;99.90
3842;DHT22;1936;47.074;15.336;2022-11-21T12:00:45;9.80;99.90
3842;DHT22;1936;47.074;15.336;2022-11-21T12:02:56;9.70;99.90
3842;DHT22;1936;47.074;15.336;2022-11-21T12:05:03;9.60;99.90
3842;DHT22;1936;47.074;15.336;2022-11-21T12:07:16;9.70;99.90
3842;DHT22;1936;47.074;15.336;2022-11-21T12:09:48;9.80;99.90
3842;DHT22;1936;47.074;15.336;2022-11-21T12:11:58;9.50;99.90
3842;DHT22;1936;47.074;15.336;2022-11-21T12:14:17;9.40;99.90
3842;DHT22;1936;47.074;15.336;2022-11-21T12:16:36;9.40;99.90
3842;DHT22;1936;47.074;15.336;2022-11-21T12:18:49;9.50;99.90
3842;DHT22;1936;47.074;15.336;2022-11-21T12:20:57;9.60;99.90
3842;DHT22;1936;47.074;15.336;2022-11-21T12:23:04;9.90;99.90
3842;DHT22;1936;47.074;15.336;2022-11-21T12:25:10;10.60;99.90
3842;DHT22;1936;47.074;15.336;2022-11-21T12:27:23;11.20;99.90
3842;DHT22;1936;47.074;15.336;2022-11-21T12:29:41;11.60;99.90
3842;DHT22;1936;47.074;15.336;2022-11-21T12:32:02;11.80;99.90
3842;DHT22;1936;47.074;15.336;2022-11-21T12:34:22;12.60;99.90
3842;DHT22;1936;47.074;15.336;2022-11-21T12:36:31;12.20;99.90
3842;DHT22;1936;47.074;15.336;2022-11-21T12:38:56;11.10;99.90
3842;DHT22;1936;47.074;15.336;2022-11-21T12:41:13;10.60;99.90
3842;DHT22;1936;47.074;15.336;2022-11-21T12:43:44;9.90;99.90
3842;DHT22;1936;47.074;15.336;2022-11-21T12:46:05;9.80;99.90
3842;DHT22;1936;47.074;15.336;2022-11-21T12:48:18;11.40;99.90
3842;DHT22;1936;47.074;15.336;2022-11-21T12:50:45;12.90;99.90
3842;DHT22;1936;47.074;15.336;2022-11-21T12:57:49;14.30;99.90
3842;DHT22;1936;47.074;15.336;2022-11-21T13:02:19;13.20;99.90
3842;DHT22;1936;47.074;15.336;2022-11-21T13:04:28;12.10;99.90
3842;DHT22;1936;47.074;15.336;2022-11-21T13:06:36;11.20;99.90
3842;DHT22;1936;47.074;15.336;2022-11-21T13:08:41;10.30;99.90
3842;DHT22;1936;47.074;15.336;2022-11-21T13:10:51;9.60;99.90
3842;DHT22;1936;47.074;15.336;2022-11-21T13:13:21;9.10;99.90
3842;DHT22;1936;47.074;15.336;2022-11-21T13:15:33;8.70;99.90
3842;DHT22;1936;47.074;15.336;2022-11-21T13:17:45;8.80;99.90
3842;DHT22;1936;47.074;15.336;2022-11-21T13:19:53;9.10;99.90
3842;DHT22;1936;47.074;15.336;2022-11-21T13:21:58;9.50;99.90
3842;DHT22;1936;47.074;15.336;2022-11-21T13:24:01;10.20;99.90
3842;DHT22;1936;47.074;15.336;2022-11-21T13:26:50;11.10;99.90
3842;DHT22;1936;47.074;15.336;2022-11-21T13:29:06;12.10;99.90
3842;DHT22;1936;47.074;15.336;2022-11-21T13:31:30;13.30;99.90
3842;DHT22;1936;47.074;15.336;2022-11-21T13:33:49;13.90;99.90
3842;DHT22;1936;47.074;15.336;2022-11-21T13:35:56;14.20;99.90
3842;DHT22;1936;47.074;15.336;2022-11-21T13:38:01;14.60;99.90
3842;DHT22;1936;47.074;15.336;2022-11-21T13:40:33;14.60;99.90
3842;DHT22;1936;47.074;15.336;2022-11-21T13:43:22;14.60;99.90
3842;DHT22;1936;47.074;15.336;2022-11-21T13:45:41;14.60;99.90
3842;DHT22;1936;47.074;15.336;2022-11-21T13:47:57;14.50;99.90
3842;DHT22;1936;47.074;15.336;2022-11-21T13:50:09;13.90;99.90
3842;DHT22;1936;47.074;15.336;2022-11-21T13:52:24;13.10;99.90
3842;DHT22;1936;47.074;15.336;2022-11-21T13:57:24;13.20;99.90
3842;DHT22;1936;47.074;15.336;2022-11-21T13:59:44;12.20;99.90
3842;DHT22;1936;47.074;15.336;2022-11-21T14:02:03;11.20;99.90